sensor_id;sensor_type;location;lat;lon;timestamp;pressure;altitude;pressure_sealevel;temperature;humidity
17311;BME280;8773;43.300;0.394;2022-12-19T00:00:33;100159.16;;;7.30;66.73
17311;BME280;8773;43.300;0.394;2022-12-19T00:03:02;100169.41;;;7.34;66.35
17311;BME280;8773;43.300;0.394;2022-12-19T00:05:30;100153.34;;;7.36;66.78
17311;BME280;8773;43.300;0.394;2022-12-19T00:07:58;100159.19;;;7.39;66.42
17311;BME280;8773;43.300;0.394;2022-12-19T00:10:41;100157.13;;;7.43;66.20
17311;BME280;8773;43.300;0.394;2022-12-19T00:13:09;100157.06;;;7.54;65.95
17311;BME280;8773;43.300;0.394;2022-12-19T00:15:38;100153.94;;;7.49;66.34
17311;BME280;8773;43.300;0.394;2022-12-19T00:18:06;100146.75;;;7.40;65.80
17311;BME280;8773;43.300;0.394;2022-12-19T00:20:34;100146.34;;;7.45;66.25
17311;BME280;8773;43.300;0.394;2022-12-19T00:23:02;100146.28;;;7.56;65.29
17311;BME280;8773;43.300;0.394;2022-12-19T00:25:30;100156.59;;;7.60;65.37
17311;BME280;8773;43.300;0.394;2022-12-19T00:27:59;100147.47;;;7.42;66.30
17311;BME280;8773;43.300;0.394;2022-12-19T00:30:27;100153.69;;;7.52;66.04
17311;BME280;8773;43.300;0.394;2022-12-19T00:32:59;100140.50;;;7.62;64.95
17311;BME280;8773;43.300;0.394;2022-12-19T00:35:27;100143.72;;;7.65;64.94
17311;BME280;8773;43.300;0.394;2022-12-19T00:37:55;100140.25;;;7.54;65.16
17311;BME280;8773;43.300;0.394;2022-12-19T00:40:23;100128.47;;;7.47;65.59
17311;BME280;8773;43.300;0.394;2022-12-19T00:42:52;100137.78;;;7.41;65.98
17311;BME280;8773;43.300;0.394;2022-12-19T00:45:21;100131.75;;;7.39;66.19
17311;BME280;8773;43.300;0.394;2022-12-19T00:47:49;100137.53;;;7.44;65.68
17311;BME280;8773;43.300;0.394;2022-12-19T00:50:19;100130.38;;;7.35;65.67
17311;BME280;8773;43.300;0.394;2022-12-19T00:52:47;100133.28;;;7.32;65.30
17311;BME280;8773;43.300;0.394;2022-12-19T00:55:15;100117.31;;;7.32;65.93
17311;BME280;8773;43.300;0.394;2022-12-19T00:57:45;100133.72;;;7.37;65.65
17311;BME280;8773;43.300;0.394;2022-12-19T01:00:15;100131.75;;;7.39;65.50
17311;BME280;8773;43.300;0.394;2022-12-19T01:02:44;100130.63;;;7.32;66.36
17311;BME280;8773;43.300;0.394;2022-12-19T01:05:12;100125.59;;;7.38;65.97
17311;BME280;8773;43.300;0.394;2022-12-19T01:07:41;100113.97;;;7.30;66.34
17311;BME280;8773;43.300;0.394;2022-12-19T01:10:10;100111.81;;;7.24;66.45
17311;BME280;8773;43.300;0.394;2022-12-19T01:12:38;100107.84;;;7.18;65.85
17311;BME280;8773;43.300;0.394;2022-12-19T01:15:16;100110.06;;;7.13;66.53
17311;BME280;8773;43.300;0.394;2022-12-19T01:17:46;100125.63;;;7.18;66.08
17311;BME280;8773;43.300;0.394;2022-12-19T01:20:16;100105.38;;;7.05;67.26
17311;BME280;8773;43.300;0.394;2022-12-19T01:22:57;100107.91;;;6.86;67.09
17311;BME280;8773;43.300;0.394;2022-12-19T01:25:25;100127.34;;;7.07;66.90
17311;BME280;8773;43.300;0.394;2022-12-19T01:27:54;100121.53;;;7.14;66.75
17311;BME280;8773;43.300;0.394;2022-12-19T01:30:22;100123.94;;;7.17;66.83
17311;BME280;8773;43.300;0.394;2022-12-19T01:32:50;100123.22;;;7.15;66.35
17311;BME280;8773;43.300;0.394;2022-12-19T01:35:18;100110.91;;;7.14;66.69
17311;BME280;8773;43.300;0.394;2022-12-19T01:37:48;100115.25;;;7.15;66.23
17311;BME280;8773;43.300;0.394;2022-12-19T01:40:18;100115.56;;;7.00;66.69
17311;BME280;8773;43.300;0.394;2022-12-19T01:42:47;100109.25;;;7.01;66.38
17311;BME280;8773;43.300;0.394;2022-12-19T01:45:27;100116.72;;;7.07;66.13
17311;BME280;8773;43.300;0.394;2022-12-19T01:48:12;100109.16;;;7.24;65.46
17311;BME280;8773;43.300;0.394;2022-12-19T01:50:49;100114.00;;;7.19;65.78
17311;BME280;8773;43.300;0.394;2022-12-19T01:53:30;100113.56;;;7.34;64.95
17311;BME280;8773;43.300;0.394;2022-12-19T01:56:05;100108.59;;;7.51;65.00
17311;BME280;8773;43.300;0.394;2022-12-19T01:58:35;100120.59;;;7.45;65.68
17311;BME280;8773;43.300;0.394;2022-12-19T02:01:05;100104.56;;;7.56;64.12
17311;BME280;8773;43.300;0.394;2022-12-19T02:03:35;100113.63;;;7.65;64.08
17311;BME280;8773;43.300;0.394;2022-12-19T02:06:05;100105.63;;;7.65;63.69
17311;BME280;8773;43.300;0.394;2022-12-19T02:08:34;100110.38;;;7.61;63.44
17311;BME280;8773;43.300;0.394;2022-12-19T02:11:04;100105.16;;;7.39;63.73
17311;BME280;8773;43.300;0.394;2022-12-19T02:13:32;100100.66;;;7.30;63.78
17311;BME280;8773;43.300;0.394;2022-12-19T02:16:09;100108.25;;;7.14;65.05
17311;BME280;8773;43.300;0.394;2022-12-19T02:18:47;100126.66;;;7.05;64.36
17311;BME280;8773;43.300;0.394;2022-12-19T02:21:32;100123.00;;;7.06;64.57
17311;BME280;8773;43.300;0.394;2022-12-19T02:27:40;100117.59;;;6.76;66.26
17311;BME280;8773;43.300;0.394;2022-12-19T02:30:16;100129.22;;;6.64;67.33
17311;BME280;8773;43.300;0.394;2022-12-19T02:32:54;100123.69;;;6.56;66.93
17311;BME280;8773;43.300;0.394;2022-12-19T02:35:30;100128.53;;;6.51;67.65
17311;BME280;8773;43.300;0.394;2022-12-19T02:38:10;100120.63;;;6.71;66.58
17311;BME280;8773;43.300;0.394;2022-12-19T02:40:41;100118.16;;;6.91;66.40
17311;BME280;8773;43.300;0.394;2022-12-19T02:43:15;100114.97;;;6.97;66.27
17311;BME280;8773;43.300;0.394;2022-12-19T02:45:45;100116.72;;;7.07;65.50
17311;BME280;8773;43.300;0.394;2022-12-19T02:48:16;100125.75;;;7.16;65.28
17311;BME280;8773;43.300;0.394;2022-12-19T02:50:45;100112.06;;;7.21;64.80
17311;BME280;8773;43.300;0.394;2022-12-19T02:53:16;100099.75;;;7.20;64.63
17311;BME280;8773;43.300;0.394;2022-12-19T02:56:01;100108.50;;;7.11;64.59
17311;BME280;8773;43.300;0.394;2022-12-19T02:58:48;100097.88;;;6.90;65.26
17311;BME280;8773;43.300;0.394;2022-12-19T03:01:27;100096.09;;;6.79;65.40
17311;BME280;8773;43.300;0.394;2022-12-19T03:04:08;100098.03;;;6.77;65.99
17311;BME280;8773;43.300;0.394;2022-12-19T03:06:46;100089.16;;;6.56;66.30
17311;BME280;8773;43.300;0.394;2022-12-19T03:09:20;100092.38;;;6.70;65.71
17311;BME280;8773;43.300;0.394;2022-12-19T03:11:58;100090.09;;;6.66;65.22
17311;BME280;8773;43.300;0.394;2022-12-19T03:14:28;100097.94;;;6.67;65.95
17311;BME280;8773;43.300;0.394;2022-12-19T03:17:02;100093.16;;;6.50;66.53
17311;BME280;8773;43.300;0.394;2022-12-19T03:19:33;100088.25;;;6.46;66.77
17311;BME280;8773;43.300;0.394;2022-12-19T03:22:02;100079.09;;;6.38;66.06
17311;BME280;8773;43.300;0.394;2022-12-19T03:24:30;100086.88;;;6.19;67.77
17311;BME280;8773;43.300;0.394;2022-12-19T03:27:01;100069.75;;;6.12;67.30
17311;BME280;8773;43.300;0.394;2022-12-19T03:29:32;100074.22;;;6.12;67.04
17311;BME280;8773;43.300;0.394;2022-12-19T03:32:04;100080.13;;;6.15;67.92
17311;BME280;8773;43.300;0.394;2022-12-19T03:34:37;100065.81;;;5.95;67.09
17311;BME280;8773;43.300;0.394;2022-12-19T03:37:12;100054.72;;;6.01;67.88
17311;BME280;8773;43.300;0.394;2022-12-19T03:39:44;100064.00;;;5.96;67.61
17311;BME280;8773;43.300;0.394;2022-12-19T03:42:16;100066.72;;;6.17;66.78
17311;BME280;8773;43.300;0.394;2022-12-19T03:45:04;100073.13;;;6.14;66.38
17311;BME280;8773;43.300;0.394;2022-12-19T03:47:36;100069.56;;;5.93;67.56
17311;BME280;8773;43.300;0.394;2022-12-19T03:50:08;100058.94;;;5.82;67.74
17311;BME280;8773;43.300;0.394;2022-12-19T03:52:42;100061.84;;;5.90;68.18
17311;BME280;8773;43.300;0.394;2022-12-19T03:55:15;100074.16;;;5.80;68.84
17311;BME280;8773;43.300;0.394;2022-12-19T03:57:49;100070.28;;;5.95;68.19
17311;BME280;8773;43.300;0.394;2022-12-19T04:00:20;100060.88;;;5.91;68.02
17311;BME280;8773;43.300;0.394;2022-12-19T04:02:51;100053.50;;;6.05;68.21
17311;BME280;8773;43.300;0.394;2022-12-19T04:05:24;100060.22;;;6.10;68.21
17311;BME280;8773;43.300;0.394;2022-12-19T04:07:54;100044.72;;;5.94;67.81
17311;BME280;8773;43.300;0.394;2022-12-19T04:10:26;100058.94;;;6.04;67.95
17311;BME280;8773;43.300;0.394;2022-12-19T04:12:57;100063.88;;;5.86;67.52
17311;BME280;8773;43.300;0.394;2022-12-19T04:15:32;100058.94;;;5.82;68.07
17311;BME280;8773;43.300;0.394;2022-12-19T04:18:03;100051.22;;;5.90;67.70
17311;BME280;8773;43.300;0.394;2022-12-19T04:20:37;100054.59;;;6.03;67.70
17311;BME280;8773;43.300;0.394;2022-12-19T04:23:18;100054.16;;;6.19;66.85
17311;BME280;8773;43.300;0.394;2022-12-19T04:25:50;100056.53;;;6.44;66.11
17311;BME280;8773;43.300;0.394;2022-12-19T04:28:23;100051.03;;;6.57;66.32
17311;BME280;8773;43.300;0.394;2022-12-19T04:30:53;100051.50;;;6.62;64.63
17311;BME280;8773;43.300;0.394;2022-12-19T04:33:21;100051.50;;;6.62;65.24
17311;BME280;8773;43.300;0.394;2022-12-19T04:35:51;100052.66;;;6.69;65.07
17311;BME280;8773;43.300;0.394;2022-12-19T04:38:19;100064.13;;;6.69;64.01
17311;BME280;8773;43.300;0.394;2022-12-19T04:40:47;100062.91;;;6.73;64.21
17311;BME280;8773;43.300;0.394;2022-12-19T04:43:15;100073.78;;;6.70;64.17
17311;BME280;8773;43.300;0.394;2022-12-19T04:45:44;100063.41;;;6.67;64.14
17311;BME280;8773;43.300;0.394;2022-12-19T04:48:12;100069.09;;;6.63;64.58
17311;BME280;8773;43.300;0.394;2022-12-19T04:50:40;100061.91;;;6.54;63.90
17311;BME280;8773;43.300;0.394;2022-12-19T04:53:10;100065.09;;;6.48;64.32
17311;BME280;8773;43.300;0.394;2022-12-19T04:55:38;100070.66;;;6.45;64.96
17311;BME280;8773;43.300;0.394;2022-12-19T04:58:07;100073.78;;;6.50;64.87
17311;BME280;8773;43.300;0.394;2022-12-19T05:00:35;100081.13;;;6.78;63.70
17311;BME280;8773;43.300;0.394;2022-12-19T05:03:03;100081.13;;;6.78;63.77
17311;BME280;8773;43.300;0.394;2022-12-19T05:05:31;100093.44;;;6.79;63.29
17311;BME280;8773;43.300;0.394;2022-12-19T05:07:59;100098.75;;;6.79;63.67
17311;BME280;8773;43.300;0.394;2022-12-19T05:10:29;100104.44;;;6.74;63.04
17311;BME280;8773;43.300;0.394;2022-12-19T05:12:57;100113.34;;;6.85;63.94
17311;BME280;8773;43.300;0.394;2022-12-19T05:15:25;100109.63;;;6.76;63.68
17311;BME280;8773;43.300;0.394;2022-12-19T05:17:53;100106.72;;;6.47;64.32
17311;BME280;8773;43.300;0.394;2022-12-19T05:20:21;100112.06;;;6.36;64.48
17311;BME280;8773;43.300;0.394;2022-12-19T05:22:49;100111.22;;;6.24;63.87
17311;BME280;8773;43.300;0.394;2022-12-19T05:25:17;100105.81;;;6.15;64.74
17311;BME280;8773;43.300;0.394;2022-12-19T05:27:47;100111.00;;;6.16;65.63
17311;BME280;8773;43.300;0.394;2022-12-19T05:30:15;100110.25;;;6.25;64.30
17311;BME280;8773;43.300;0.394;2022-12-19T05:32:43;100104.50;;;6.09;65.55
17311;BME280;8773;43.300;0.394;2022-12-19T05:35:11;100099.16;;;6.20;65.63
17311;BME280;8773;43.300;0.394;2022-12-19T05:37:39;100111.03;;;6.05;65.55
17311;BME280;8773;43.300;0.394;2022-12-19T05:40:08;100104.84;;;6.16;64.92
17311;BME280;8773;43.300;0.394;2022-12-19T05:42:37;100103.63;;;6.20;65.12
17311;BME280;8773;43.300;0.394;2022-12-19T05:45:07;100111.25;;;6.13;64.70
17311;BME280;8773;43.300;0.394;2022-12-19T05:47:35;100104.50;;;6.09;64.92
17311;BME280;8773;43.300;0.394;2022-12-19T05:50:04;100122.59;;;6.15;65.48
17311;BME280;8773;43.300;0.394;2022-12-19T05:52:32;100114.38;;;6.07;64.66
17311;BME280;8773;43.300;0.394;2022-12-19T05:55:00;100118.28;;;6.03;65.27
17311;BME280;8773;43.300;0.394;2022-12-19T05:57:28;100121.91;;;5.91;66.29
17311;BME280;8773;43.300;0.394;2022-12-19T05:59:56;100108.50;;;5.92;65.78
17311;BME280;8773;43.300;0.394;2022-12-19T06:02:26;100104.28;;;6.01;65.15
17311;BME280;8773;43.300;0.394;2022-12-19T06:04:54;100109.56;;;6.12;64.39
17311;BME280;8773;43.300;0.394;2022-12-19T06:07:22;100104.72;;;6.17;65.79
17311;BME280;8773;43.300;0.394;2022-12-19T06:09:50;100121.34;;;6.30;64.81
17311;BME280;8773;43.300;0.394;2022-12-19T06:12:18;100121.72;;;6.26;63.77
17311;BME280;8773;43.300;0.394;2022-12-19T06:14:46;100122.34;;;6.18;64.22
17311;BME280;8773;43.300;0.394;2022-12-19T06:17:14;100112.84;;;6.04;64.98
17311;BME280;8773;43.300;0.394;2022-12-19T06:19:44;100119.38;;;6.00;65.40
17311;BME280;8773;43.300;0.394;2022-12-19T06:22:12;100120.94;;;5.92;65.28
17311;BME280;8773;43.300;0.394;2022-12-19T06:24:40;100118.41;;;6.01;65.41
17311;BME280;8773;43.300;0.394;2022-12-19T06:27:08;100122.13;;;5.99;64.58
17311;BME280;8773;43.300;0.394;2022-12-19T06:29:36;100122.75;;;6.02;64.73
17311;BME280;8773;43.300;0.394;2022-12-19T06:32:05;100125.72;;;6.09;65.58
17311;BME280;8773;43.300;0.394;2022-12-19T06:34:34;100136.81;;;6.14;64.60
17311;BME280;8773;43.300;0.394;2022-12-19T06:37:23;100128.66;;;6.06;64.84
17311;BME280;8773;43.300;0.394;2022-12-19T06:39:51;100131.53;;;5.92;65.32
17311;BME280;8773;43.300;0.394;2022-12-19T06:42:20;100125.75;;;5.98;65.35
17311;BME280;8773;43.300;0.394;2022-12-19T06:44:50;100125.50;;;6.01;65.52
17311;BME280;8773;43.300;0.394;2022-12-19T06:47:22;100142.25;;;6.24;64.41
17311;BME280;8773;43.300;0.394;2022-12-19T06:49:50;100134.66;;;6.19;64.14
17311;BME280;8773;43.300;0.394;2022-12-19T06:52:18;100134.53;;;6.10;63.94
17311;BME280;8773;43.300;0.394;2022-12-19T06:54:48;100138.16;;;6.08;63.94
17311;BME280;8773;43.300;0.394;2022-12-19T06:57:16;100142.59;;;6.08;63.55
17311;BME280;8773;43.300;0.394;2022-12-19T06:59:44;100136.13;;;6.01;63.62
17311;BME280;8773;43.300;0.394;2022-12-19T07:02:20;100139.84;;;5.87;65.16
17311;BME280;8773;43.300;0.394;2022-12-19T07:04:56;100143.84;;;5.93;64.32
17311;BME280;8773;43.300;0.394;2022-12-19T07:07:27;100148.44;;;5.91;64.67
17311;BME280;8773;43.300;0.394;2022-12-19T07:09:57;100147.47;;;5.92;64.91
17311;BME280;8773;43.300;0.394;2022-12-19T07:12:25;100155.31;;;5.93;64.78
17311;BME280;8773;43.300;0.394;2022-12-19T07:14:53;100160.25;;;5.87;64.83
17311;BME280;8773;43.300;0.394;2022-12-19T07:17:22;100153.63;;;6.03;64.09
17311;BME280;8773;43.300;0.394;2022-12-19T07:19:53;100155.41;;;6.14;63.80
17311;BME280;8773;43.300;0.394;2022-12-19T07:22:24;100156.63;;;5.99;64.79
17311;BME280;8773;43.300;0.394;2022-12-19T07:24:57;100153.22;;;5.74;65.29
17311;BME280;8773;43.300;0.394;2022-12-19T07:27:26;100149.53;;;5.42;65.50
17311;BME280;8773;43.300;0.394;2022-12-19T07:30:02;100163.06;;;5.50;65.18
17311;BME280;8773;43.300;0.394;2022-12-19T07:32:30;100151.03;;;5.57;65.54
17311;BME280;8773;43.300;0.394;2022-12-19T07:34:58;100157.53;;;5.64;65.32
17311;BME280;8773;43.300;0.394;2022-12-19T07:37:26;100161.56;;;5.81;64.78
17311;BME280;8773;43.300;0.394;2022-12-19T07:39:54;100160.00;;;5.90;64.17
17311;BME280;8773;43.300;0.394;2022-12-19T07:42:23;100157.53;;;5.53;64.97
17311;BME280;8773;43.300;0.394;2022-12-19T07:44:58;100160.28;;;5.52;66.14
17311;BME280;8773;43.300;0.394;2022-12-19T07:47:27;100165.47;;;5.53;66.16
17311;BME280;8773;43.300;0.394;2022-12-19T07:49:55;100164.13;;;5.48;65.93
17311;BME280;8773;43.300;0.394;2022-12-19T07:52:23;100168.41;;;5.61;64.80
17311;BME280;8773;43.300;0.394;2022-12-19T07:54:51;100159.69;;;5.70;65.50
17311;BME280;8773;43.300;0.394;2022-12-19T07:57:24;100172.00;;;5.71;64.60
17311;BME280;8773;43.300;0.394;2022-12-19T07:59:52;100167.53;;;5.72;64.78
17311;BME280;8773;43.300;0.394;2022-12-19T08:02:20;100168.91;;;5.89;64.55
17311;BME280;8773;43.300;0.394;2022-12-19T08:04:48;100166.75;;;5.94;63.83
17311;BME280;8773;43.300;0.394;2022-12-19T08:07:16;100162.03;;;6.08;63.72
17311;BME280;8773;43.300;0.394;2022-12-19T08:09:45;100166.25;;;6.22;63.38
17311;BME280;8773;43.300;0.394;2022-12-19T08:12:13;100169.63;;;6.24;63.14
17311;BME280;8773;43.300;0.394;2022-12-19T08:14:44;100171.94;;;6.18;64.12
17311;BME280;8773;43.300;0.394;2022-12-19T08:17:12;100174.81;;;6.15;63.96
17311;BME280;8773;43.300;0.394;2022-12-19T08:19:47;100179.16;;;6.16;63.39
17311;BME280;8773;43.300;0.394;2022-12-19T08:22:15;100176.50;;;6.16;63.62
17311;BME280;8773;43.300;0.394;2022-12-19T08:24:43;100164.44;;;6.12;63.88
17311;BME280;8773;43.300;0.394;2022-12-19T08:27:11;100161.91;;;6.32;63.85
17311;BME280;8773;43.300;0.394;2022-12-19T08:29:39;100172.34;;;6.56;62.23
17311;BME280;8773;43.300;0.394;2022-12-19T08:32:09;100178.78;;;6.43;61.84
17311;BME280;8773;43.300;0.394;2022-12-19T08:34:45;100186.03;;;6.18;62.84
17311;BME280;8773;43.300;0.394;2022-12-19T08:37:13;100195.09;;;6.49;62.51
17311;BME280;8773;43.300;0.394;2022-12-19T08:39:42;100181.38;;;6.76;61.59
17311;BME280;8773;43.300;0.394;2022-12-19T08:42:10;100187.53;;;7.08;61.79
17311;BME280;8773;43.300;0.394;2022-12-19T08:44:38;100195.59;;;7.39;61.13
17311;BME280;8773;43.300;0.394;2022-12-19T08:47:06;100193.00;;;7.49;60.70
17311;BME280;8773;43.300;0.394;2022-12-19T08:49:36;100192.03;;;7.50;60.46
17311;BME280;8773;43.300;0.394;2022-12-19T08:52:04;100195.84;;;7.68;60.87
17311;BME280;8773;43.300;0.394;2022-12-19T08:54:32;100198.19;;;7.92;59.20
17311;BME280;8773;43.300;0.394;2022-12-19T08:57:01;100201.75;;;8.02;58.84
17311;BME280;8773;43.300;0.394;2022-12-19T08:59:29;100198.34;;;8.21;58.65
17311;BME280;8773;43.300;0.394;2022-12-19T09:01:58;100184.94;;;8.42;57.76
17311;BME280;8773;43.300;0.394;2022-12-19T09:04:28;100188.09;;;8.56;58.03
17311;BME280;8773;43.300;0.394;2022-12-19T09:07:17;100188.25;;;8.74;57.57
17311;BME280;8773;43.300;0.394;2022-12-19T09:09:45;100196.84;;;8.87;57.41
17311;BME280;8773;43.300;0.394;2022-12-19T09:12:14;100209.22;;;9.08;56.43
17311;BME280;8773;43.300;0.394;2022-12-19T09:14:43;100208.06;;;9.10;56.38
17311;BME280;8773;43.300;0.394;2022-12-19T09:17:11;100215.94;;;9.12;56.24
17311;BME280;8773;43.300;0.394;2022-12-19T09:19:39;100203.81;;;8.69;55.98
17311;BME280;8773;43.300;0.394;2022-12-19T09:22:14;100221.75;;;8.67;56.73
17311;BME280;8773;43.300;0.394;2022-12-19T09:24:43;100205.50;;;8.70;56.25
17311;BME280;8773;43.300;0.394;2022-12-19T09:27:12;100207.34;;;8.79;57.32
17311;BME280;8773;43.300;0.394;2022-12-19T09:29:40;100201.47;;;8.85;56.15
17311;BME280;8773;43.300;0.394;2022-12-19T09:32:09;100215.09;;;9.01;55.63
17311;BME280;8773;43.300;0.394;2022-12-19T09:34:38;100230.19;;;8.72;55.40
17311;BME280;8773;43.300;0.394;2022-12-19T09:37:07;100213.34;;;8.71;56.16
17311;BME280;8773;43.300;0.394;2022-12-19T09:39:44;100223.94;;;8.92;56.43
17311;BME280;8773;43.300;0.394;2022-12-19T09:45:32;100236.47;;;9.30;55.81
17311;BME280;8773;43.300;0.394;2022-12-19T09:48:10;100226.94;;;9.47;55.29
17311;BME280;8773;43.300;0.394;2022-12-19T09:50:55;100229.72;;;9.55;55.55
17311;BME280;8773;43.300;0.394;2022-12-19T09:53:49;100226.09;;;9.18;54.85
17311;BME280;8773;43.300;0.394;2022-12-19T09:56:26;100221.06;;;8.74;55.97
17311;BME280;8773;43.300;0.394;2022-12-19T09:59:03;100230.81;;;9.04;56.96
17311;BME280;8773;43.300;0.394;2022-12-19T10:01:39;100226.38;;;9.24;56.62
17311;BME280;8773;43.300;0.394;2022-12-19T10:04:13;100210.06;;;9.18;56.20
17311;BME280;8773;43.300;0.394;2022-12-19T10:06:44;100216.56;;;9.44;56.16
17311;BME280;8773;43.300;0.394;2022-12-19T10:09:34;100203.03;;;9.07;57.27
17311;BME280;8773;43.300;0.394;2022-12-19T10:15:33;100186.34;;;9.34;55.78
17311;BME280;8773;43.300;0.394;2022-12-19T10:18:17;100211.34;;;9.52;55.89
17311;BME280;8773;43.300;0.394;2022-12-19T10:20:57;100224.94;;;9.68;56.15
17311;BME280;8773;43.300;0.394;2022-12-19T10:23:53;100220.91;;;10.01;55.17
17311;BME280;8773;43.300;0.394;2022-12-19T10:26:28;100244.91;;;10.21;53.65
17311;BME280;8773;43.300;0.394;2022-12-19T10:29:27;100251.47;;;9.80;52.15
17311;BME280;8773;43.300;0.394;2022-12-19T10:32:05;100201.66;;;9.98;53.03
17311;BME280;8773;43.300;0.394;2022-12-19T10:34:39;100230.88;;;10.56;53.66
17311;BME280;8773;43.300;0.394;2022-12-19T10:37:12;100236.06;;;10.57;51.44
17311;BME280;8773;43.300;0.394;2022-12-19T10:40:04;100214.75;;;10.75;52.59
17311;BME280;8773;43.300;0.394;2022-12-19T10:42:52;100219.34;;;11.00;52.43
17311;BME280;8773;43.300;0.394;2022-12-19T10:45:36;100226.28;;;10.76;52.46
17311;BME280;8773;43.300;0.394;2022-12-19T10:48:11;100220.34;;;10.45;53.11
17311;BME280;8773;43.300;0.394;2022-12-19T10:50:41;100204.97;;;10.29;53.67
17311;BME280;8773;43.300;0.394;2022-12-19T10:53:11;100214.53;;;10.59;53.62
17311;BME280;8773;43.300;0.394;2022-12-19T10:55:42;100219.94;;;10.94;53.93
17311;BME280;8773;43.300;0.394;2022-12-19T10:58:19;100205.38;;;11.24;52.45
17311;BME280;8773;43.300;0.394;2022-12-19T11:01:12;100205.19;;;11.44;52.47
17311;BME280;8773;43.300;0.394;2022-12-19T11:03:42;100202.06;;;11.48;52.68
17311;BME280;8773;43.300;0.394;2022-12-19T11:06:41;100197.31;;;11.42;52.73
17311;BME280;8773;43.300;0.394;2022-12-19T11:09:24;100228.59;;;11.42;51.16
17311;BME280;8773;43.300;0.394;2022-12-19T11:12:04;100223.88;;;11.53;51.28
17311;BME280;8773;43.300;0.394;2022-12-19T11:15:12;100199.31;;;11.58;52.37
17311;BME280;8773;43.300;0.394;2022-12-19T11:18:07;100212.31;;;11.79;51.46
17311;BME280;8773;43.300;0.394;2022-12-19T11:20:58;100195.19;;;11.89;51.27
17311;BME280;8773;43.300;0.394;2022-12-19T11:23:50;100182.13;;;12.12;51.17
17311;BME280;8773;43.300;0.394;2022-12-19T11:26:43;100176.13;;;12.26;50.08
17311;BME280;8773;43.300;0.394;2022-12-19T11:29:46;100160.88;;;11.67;50.43
17311;BME280;8773;43.300;0.394;2022-12-19T11:32:37;100136.34;;;11.54;50.29
17311;BME280;8773;43.300;0.394;2022-12-19T11:35:20;100140.78;;;11.89;51.29
17311;BME280;8773;43.300;0.394;2022-12-19T11:37:53;100138.34;;;11.78;50.54
17311;BME280;8773;43.300;0.394;2022-12-19T11:40:31;100136.34;;;11.80;50.82
17311;BME280;8773;43.300;0.394;2022-12-19T11:43:05;100141.56;;;12.07;50.88
17311;BME280;8773;43.300;0.394;2022-12-19T11:45:59;100130.75;;;12.33;50.27
17311;BME280;8773;43.300;0.394;2022-12-19T11:48:36;100143.44;;;12.23;49.53
17311;BME280;8773;43.300;0.394;2022-12-19T11:51:14;100150.44;;;12.58;49.63
17311;BME280;8773;43.300;0.394;2022-12-19T11:53:51;100109.09;;;12.77;49.09
17311;BME280;8773;43.300;0.394;2022-12-19T11:56:23;100134.81;;;13.20;47.89
17311;BME280;8773;43.300;0.394;2022-12-19T11:58:55;100131.47;;;13.42;47.76
17311;BME280;8773;43.300;0.394;2022-12-19T12:01:41;100121.69;;;13.57;46.73
17311;BME280;8773;43.300;0.394;2022-12-19T12:04:26;100116.28;;;13.82;46.92
17311;BME280;8773;43.300;0.394;2022-12-19T12:07:03;100123.44;;;13.89;46.72
17311;BME280;8773;43.300;0.394;2022-12-19T12:09:57;100125.31;;;13.89;46.72
17311;BME280;8773;43.300;0.394;2022-12-19T12:12:58;100130.72;;;13.81;47.49
17311;BME280;8773;43.300;0.394;2022-12-19T12:15:56;100120.34;;;13.61;47.89
17311;BME280;8773;43.300;0.394;2022-12-19T12:18:57;100114.28;;;13.76;48.56
17311;BME280;8773;43.300;0.394;2022-12-19T12:21:52;100119.25;;;13.87;48.31
17311;BME280;8773;43.300;0.394;2022-12-19T12:24:52;100129.66;;;13.90;47.68
17311;BME280;8773;43.300;0.394;2022-12-19T12:27:48;100117.91;;;13.91;47.94
17311;BME280;8773;43.300;0.394;2022-12-19T12:30:49;100116.03;;;14.08;47.92
17311;BME280;8773;43.300;0.394;2022-12-19T12:33:59;100108.63;;;14.18;47.93
17311;BME280;8773;43.300;0.394;2022-12-19T12:36:59;100107.44;;;14.20;47.79
17311;BME280;8773;43.300;0.394;2022-12-19T12:40:00;100103.91;;;14.20;47.74
17311;BME280;8773;43.300;0.394;2022-12-19T12:42:38;100100.34;;;14.27;47.90
17311;BME280;8773;43.300;0.394;2022-12-19T12:45:18;100097.03;;;14.17;47.73
17311;BME280;8773;43.300;0.394;2022-12-19T12:47:49;100091.31;;;14.20;48.16
17311;BME280;8773;43.300;0.394;2022-12-19T12:50:21;100094.34;;;14.17;47.86
17311;BME280;8773;43.300;0.394;2022-12-19T12:52:52;100091.78;;;14.24;48.23
17311;BME280;8773;43.300;0.394;2022-12-19T12:55:26;100081.59;;;14.03;48.33
17311;BME280;8773;43.300;0.394;2022-12-19T12:57:55;100079.91;;;14.10;48.92
17311;BME280;8773;43.300;0.394;2022-12-19T13:00:25;100079.88;;;14.18;48.81
17311;BME280;8773;43.300;0.394;2022-12-19T13:03:01;100074.81;;;14.23;48.49
17311;BME280;8773;43.300;0.394;2022-12-19T13:05:37;100069.09;;;14.26;48.56
17311;BME280;8773;43.300;0.394;2022-12-19T13:08:30;100080.75;;;14.42;48.31
17311;BME280;8773;43.300;0.394;2022-12-19T13:11:04;100084.06;;;14.52;48.31
17311;BME280;8773;43.300;0.394;2022-12-19T13:13:53;100055.44;;;14.59;47.86
17311;BME280;8773;43.300;0.394;2022-12-19T13:16:52;100056.75;;;14.63;48.37
17311;BME280;8773;43.300;0.394;2022-12-19T13:19:23;100059.13;;;14.58;48.51
17311;BME280;8773;43.300;0.394;2022-12-19T13:22:19;100056.94;;;14.61;48.69
17311;BME280;8773;43.300;0.394;2022-12-19T13:24:49;100054.94;;;14.55;48.98
17311;BME280;8773;43.300;0.394;2022-12-19T13:27:37;100050.91;;;14.59;48.68
17311;BME280;8773;43.300;0.394;2022-12-19T13:30:17;100057.25;;;14.66;48.90
17311;BME280;8773;43.300;0.394;2022-12-19T13:33:09;100054.19;;;14.69;48.53
17311;BME280;8773;43.300;0.394;2022-12-19T13:35:37;100052.69;;;14.67;48.86
17311;BME280;8773;43.300;0.394;2022-12-19T13:38:26;100061.91;;;14.73;49.11
17311;BME280;8773;43.300;0.394;2022-12-19T13:41:28;100055.69;;;14.72;48.53
17311;BME280;8773;43.300;0.394;2022-12-19T13:44:19;100066.16;;;14.67;48.28
17311;BME280;8773;43.300;0.394;2022-12-19T13:46:48;100067.47;;;14.71;48.52
17311;BME280;8773;43.300;0.394;2022-12-19T13:49:18;100071.44;;;14.75;48.41
17311;BME280;8773;43.300;0.394;2022-12-19T13:51:53;100068.88;;;14.82;48.51
17311;BME280;8773;43.300;0.394;2022-12-19T13:54:24;100055.78;;;14.79;48.32